createdAt,value
2018-05-23T00:00:21.829Z,33.13
2018-05-23T00:01:24.405Z,37.30
2018-05-23T00:02:27.676Z,35.42
2018-05-23T00:03:30.168Z,34.08
2018-05-23T00:04:33.407Z,34.10
2018-05-23T00:05:36.052Z,33.67
2018-05-23T00:06:38.546Z,34.95
2018-05-23T00:07:41.020Z,34.70
2018-05-23T00:08:43.508Z,33.88
2018-05-23T00:09:46.012Z,33.58
2018-05-23T00:10:49.703Z,34.50
2018-05-23T00:11:52.216Z,33.17
2018-05-23T00:12:54.697Z,36.13
2018-05-23T00:13:57.956Z,34.47
2018-05-23T00:15:00.431Z,33.63
2018-05-23T00:16:03.151Z,35.60
2018-05-23T00:17:05.662Z,37.75
2018-05-23T00:18:08.136Z,37.00
2018-05-23T00:19:10.624Z,38.28
2018-05-23T00:20:14.134Z,37.83
2018-05-23T00:21:18.544Z,36.28
2018-05-23T00:22:21.052Z,34.03
2018-05-23T00:23:23.521Z,38.63
2018-05-23T00:24:26.791Z,31.75
2018-05-23T00:25:29.526Z,35.67
2018-05-23T00:26:32.032Z,36.83
2018-05-23T00:27:34.512Z,36.25
2018-05-23T00:28:36.984Z,35.15
2018-05-23T00:29:40.237Z,37.30
2018-05-23T00:30:42.974Z,33.70
2018-05-23T00:31:45.473Z,38.97
2018-05-23T00:32:47.941Z,37.63
2018-05-23T00:33:50.408Z,38.78
2018-05-23T00:34:52.892Z,38.25
2018-05-23T00:35:55.644Z,35.13
2018-05-23T00:36:58.135Z,35.60
2018-05-23T00:38:01.376Z,37.05
2018-05-23T00:39:03.844Z,39.35
2018-05-23T00:40:08.674Z,37.60
2018-05-23T00:41:11.405Z,36.70
2018-05-23T00:42:13.907Z,37.35
2018-05-23T00:43:16.380Z,40.33
2018-05-23T00:44:18.858Z,39.25
2018-05-23T00:45:22.490Z,35.95
2018-05-23T00:46:25.263Z,40.17
2018-05-23T00:47:27.767Z,36.03
2018-05-23T00:48:30.235Z,35.58
2018-05-23T00:49:32.707Z,39.22
2018-05-23T00:50:35.425Z,40.60
2018-05-23T00:51:37.954Z,38.28
2018-05-23T00:52:40.396Z,39.22
2018-05-23T00:53:42.872Z,40.42
2018-05-23T00:54:57.272Z,36.60
2018-05-23T00:56:00.090Z,38.63
2018-05-23T00:57:03.344Z,39.53
2018-05-23T00:58:05.822Z,36.22
2018-05-23T00:59:08.302Z,37.13
2018-05-23T01:00:11.019Z,37.33
2018-05-23T01:01:13.761Z,36.90
2018-05-23T01:02:16.253Z,36.22
2018-05-23T01:03:18.723Z,34.97
2018-05-23T01:04:21.232Z,37.85
2018-05-23T01:05:23.955Z,37.00
2018-05-23T01:06:27.135Z,34.33
2018-05-23T01:07:29.689Z,36.00
2018-05-23T01:08:32.924Z,37.47
2018-05-23T01:09:35.393Z,39.22
2018-05-23T01:10:38.221Z,37.58
2018-05-23T01:11:40.748Z,38.53
2018-05-23T01:12:43.220Z,37.83
2018-05-23T01:13:46.456Z,39.72
2018-05-23T01:14:48.932Z,36.58
2018-05-23T01:15:51.668Z,39.65
2018-05-23T01:16:54.199Z,36.65
2018-05-23T01:17:57.436Z,37.70
2018-05-23T01:18:59.904Z,37.90
2018-05-23T01:20:02.372Z,36.22
2018-05-23T01:21:05.116Z,38.70
2018-05-23T01:22:07.688Z,36.88
2018-05-23T01:23:10.155Z,35.03
2018-05-23T01:24:12.632Z,37.72
2018-05-23T01:25:15.791Z,39.55
2018-05-23T01:26:20.655Z,38.05
2018-05-23T01:27:23.170Z,37.22
2018-05-23T01:28:25.636Z,39.75
2018-05-23T01:29:28.115Z,39.10
2018-05-23T01:30:31.799Z,43.00
2018-05-23T01:31:34.304Z,39.92
2018-05-23T01:32:36.792Z,40.35
2018-05-23T01:33:40.036Z,43.50
2018-05-23T01:34:42.504Z,40.72
2018-05-23T01:35:45.247Z,42.83
2018-05-23T01:36:47.747Z,41.60
2018-05-23T01:37:50.233Z,40.60
2018-05-23T01:38:52.704Z,37.95
2018-05-23T01:39:55.940Z,39.05
2018-05-23T01:40:58.632Z,40.78
2018-05-23T01:42:02.668Z,37.72
2018-05-23T01:43:05.936Z,39.38
2018-05-23T01:44:08.412Z,43.08
2018-05-23T01:45:12.647Z,41.70
2018-05-23T01:46:15.358Z,39.10
2018-05-23T01:47:17.849Z,39.20
2018-05-23T01:48:21.108Z,38.90
2018-05-23T01:49:26.404Z,36.63
2018-05-23T01:50:29.166Z,36.90
2018-05-23T01:51:31.667Z,39.28
2018-05-23T01:52:34.140Z,38.58
2018-05-23T01:53:36.632Z,36.75
2018-05-23T01:54:39.871Z,39.55
2018-05-23T01:55:42.660Z,41.53
2018-05-23T01:56:45.144Z,38.50
2018-05-23T01:57:48.380Z,37.45
2018-05-23T01:58:50.884Z,41.22
2018-05-23T01:59:53.354Z,36.42
2018-05-23T02:00:56.115Z,41.03
2018-05-23T02:01:59.368Z,39.50
2018-05-23T02:03:01.844Z,36.83
2018-05-23T02:04:04.335Z,39.92
2018-05-23T02:05:07.917Z,38.10
2018-05-23T02:06:11.561Z,38.35
2018-05-23T02:07:14.072Z,37.38
2018-05-23T02:08:16.540Z,37.45
2018-05-23T02:09:19.032Z,37.10
2018-05-23T02:10:22.575Z,37.55
2018-05-23T02:11:25.413Z,40.10
2018-05-23T02:12:27.920Z,38.00
2018-05-23T02:13:30.388Z,40.33
2018-05-23T02:14:32.885Z,40.88
2018-05-23T02:15:36.436Z,39.35
2018-05-23T02:16:38.916Z,41.47
2018-05-23T02:17:41.388Z,39.85
2018-05-23T02:18:44.628Z,43.87
2018-05-23T02:19:47.116Z,39.13
2018-05-23T02:20:49.890Z,41.13
2018-05-23T02:21:52.372Z,41.58
2018-05-23T02:22:55.609Z,42.72
2018-05-23T02:23:58.080Z,41.08
2018-05-23T02:25:00.575Z,40.75
2018-05-23T02:26:03.395Z,42.33
2018-05-23T02:27:05.903Z,37.78
2018-05-23T02:28:08.379Z,41.60
2018-05-23T02:29:10.848Z,40.38
2018-05-23T02:30:14.481Z,40.67
2018-05-23T02:31:17.587Z,41.13
2018-05-23T02:32:20.080Z,41.22
2018-05-23T02:33:23.321Z,40.58
2018-05-23T02:34:25.796Z,38.40
2018-05-23T02:35:28.595Z,39.63
2018-05-23T02:36:32.075Z,40.80
2018-05-23T02:37:34.560Z,39.97
2018-05-23T02:38:37.036Z,40.25
2018-05-23T02:39:40.275Z,41.28
2018-05-23T02:40:43.116Z,38.33
2018-05-23T02:41:45.632Z,39.63
2018-05-23T02:42:48.104Z,40.05
2018-05-23T02:43:50.572Z,40.35
2018-05-23T02:44:53.811Z,42.35
2018-05-23T02:45:56.562Z,41.70
2018-05-23T02:46:59.078Z,36.67
2018-05-23T02:48:01.551Z,37.80
2018-05-23T02:49:04.053Z,40.75
2018-05-23T02:50:06.760Z,44.00
2018-05-23T02:51:09.533Z,42.83
2018-05-23T02:52:12.015Z,37.92
2018-05-23T02:53:14.488Z,41.88
2018-05-23T02:54:18.468Z,37.58
2018-05-23T02:55:21.242Z,39.22
2018-05-23T02:56:24.788Z,38.85
2018-05-23T02:57:27.292Z,40.92
2018-05-23T02:58:29.769Z,42.13
2018-05-23T02:59:32.703Z,42.70
2018-05-23T03:00:35.464Z,40.45
2018-05-23T03:01:37.984Z,38.22
2018-05-23T03:02:40.452Z,40.58
2018-05-23T03:03:42.924Z,41.08
2018-05-23T03:04:46.165Z,40.88
2018-05-23T03:05:49.255Z,40.75
2018-05-23T03:06:51.771Z,38.67
2018-05-23T03:07:55.013Z,42.35
2018-05-23T03:08:57.487Z,43.20
2018-05-23T03:09:59.962Z,41.83
2018-05-23T03:11:03.485Z,39.97
2018-05-23T03:12:06.007Z,41.97
2018-05-23T03:13:08.480Z,42.97
2018-05-23T03:14:11.720Z,39.83
2018-05-23T03:15:14.571Z,40.50
2018-05-23T03:16:17.342Z,39.65
2018-05-23T03:17:19.863Z,40.50
2018-05-23T03:18:22.339Z,41.55
2018-05-23T03:19:25.580Z,39.80
2018-05-23T03:20:28.326Z,42.08
2018-05-23T03:21:32.018Z,42.58
2018-05-23T03:22:34.543Z,40.22
2018-05-23T03:23:37.783Z,42.47
2018-05-23T03:24:40.284Z,41.17
2018-05-23T03:25:43.105Z,42.35
2018-05-23T03:26:45.577Z,45.80
2018-05-23T03:27:48.068Z,44.20
2018-05-23T03:28:50.535Z,44.65
2018-05-23T03:29:53.007Z,45.50
2018-05-23T03:30:55.835Z,45.38
2018-05-23T03:31:58.323Z,48.38
2018-05-23T03:33:00.823Z,44.97
2018-05-23T03:34:03.296Z,48.00
2018-05-23T03:35:06.536Z,47.42
2018-05-23T03:36:09.282Z,45.50
2018-05-23T03:37:11.812Z,46.10
2018-05-23T03:38:14.272Z,44.25
2018-05-23T03:39:16.744Z,43.85
2018-05-23T03:40:19.551Z,43.17
2018-05-23T03:41:22.262Z,45.30
2018-05-23T03:42:26.252Z,41.83
2018-05-23T03:43:28.748Z,42.70
2018-05-23T03:44:31.987Z,43.87
2018-05-23T03:45:34.737Z,47.00
2018-05-23T03:46:37.243Z,47.13
2018-05-23T03:47:39.728Z,47.55
2018-05-23T03:48:42.220Z,48.25
2018-05-23T03:49:45.457Z,47.83
2018-05-23T03:50:48.185Z,46.05
2018-05-23T03:51:50.676Z,47.15
2018-05-23T03:52:53.150Z,47.38
2018-05-23T03:53:55.636Z,46.58
2018-05-23T03:54:58.116Z,48.50
2018-05-23T03:56:01.641Z,48.22
2018-05-23T03:57:04.159Z,48.30
2018-05-23T03:58:06.632Z,51.03
2018-05-23T03:59:09.884Z,46.70
2018-05-23T04:00:24.447Z,49.55
2018-05-23T04:01:39.680Z,44.50
2018-05-23T04:04:51.015Z,46.60
2018-05-23T04:06:05.489Z,47.13
2018-05-23T04:07:19.808Z,50.55
2018-05-23T04:08:23.044Z,52.38
2018-05-23T04:09:25.512Z,49.63
2018-05-23T04:10:28.356Z,48.40
2018-05-23T04:11:31.733Z,49.25
2018-05-23T04:12:34.240Z,47.22
2018-05-23T04:13:36.708Z,51.65
2018-05-23T04:14:39.185Z,51.55
2018-05-23T04:15:41.877Z,49.20
2018-05-23T04:16:44.372Z,48.80
2018-05-23T04:17:46.840Z,46.05
2018-05-23T04:18:49.316Z,51.58
2018-05-23T04:19:51.784Z,49.92
2018-05-23T04:20:54.629Z,48.55
2018-05-23T04:21:57.145Z,48.25
2018-05-23T04:22:59.616Z,50.97
2018-05-23T04:24:02.120Z,50.15
2018-05-23T04:25:05.332Z,49.67
2018-05-23T04:26:07.898Z,46.37
2018-05-23T04:27:10.375Z,50.80
2018-05-23T04:28:12.888Z,50.03
2018-05-23T04:29:16.120Z,48.53
2018-05-23T04:30:18.855Z,48.08
2018-05-23T04:31:21.636Z,52.00
2018-05-23T04:32:24.108Z,46.97
2018-05-23T04:33:26.585Z,48.38
2018-05-23T04:34:29.058Z,49.05
2018-05-23T04:35:31.892Z,48.80
2018-05-23T04:36:34.412Z,47.65
2018-05-23T04:37:36.880Z,48.30
2018-05-23T04:38:39.353Z,47.25
2018-05-23T04:39:42.595Z,47.70
2018-05-23T04:40:45.340Z,52.42
2018-05-23T04:41:48.413Z,48.15
2018-05-23T04:42:50.883Z,47.17
2018-05-23T04:43:53.358Z,48.10
2018-05-23T04:44:55.828Z,49.75
2018-05-23T04:45:58.483Z,48.33
2018-05-23T04:47:00.992Z,49.97
2018-05-23T04:48:03.518Z,51.30
2018-05-23T04:49:05.948Z,47.03
2018-05-23T04:50:10.078Z,48.80
2018-05-23T04:51:13.769Z,50.03
2018-05-23T04:52:16.271Z,49.25
2018-05-23T04:53:18.748Z,53.08
2018-05-23T04:54:21.228Z,49.45
2018-05-23T04:55:24.037Z,52.42
2018-05-23T04:56:26.732Z,51.13
2018-05-23T04:57:29.216Z,46.42
2018-05-23T04:58:31.688Z,50.85
2018-05-23T04:59:34.159Z,54.63
2018-05-23T05:00:36.920Z,51.50
2018-05-23T05:01:40.176Z,51.40
2018-05-23T05:02:42.664Z,54.33
2018-05-23T05:03:45.142Z,60.10
2018-05-23T05:04:47.613Z,54.67
2018-05-23T05:05:51.087Z,53.92
2018-05-23T05:06:54.343Z,52.28
2018-05-23T05:07:56.828Z,57.33
2018-05-23T05:08:59.299Z,54.47
2018-05-23T05:10:01.776Z,60.20
2018-05-23T05:11:05.302Z,51.45
2018-05-23T05:12:07.808Z,52.42
2018-05-23T05:13:10.296Z,54.40
2018-05-23T05:14:12.767Z,53.97
2018-05-23T05:15:16.399Z,50.83
2018-05-23T05:16:19.158Z,53.05
2018-05-23T05:17:21.661Z,53.78
2018-05-23T05:18:24.151Z,54.25
2018-05-23T05:19:26.623Z,52.15
2018-05-23T05:20:31.062Z,49.00
2018-05-23T05:21:33.576Z,50.60
2018-05-23T05:22:36.062Z,50.60
2018-05-23T05:23:39.332Z,49.15
2018-05-23T05:24:41.808Z,53.58
2018-05-23T05:25:45.432Z,53.63
2018-05-23T05:26:47.944Z,51.60
2018-05-23T05:27:50.535Z,52.28
2018-05-23T05:28:53.788Z,51.63
2018-05-23T05:29:56.257Z,49.50
2018-05-23T05:30:59.893Z,51.37
2018-05-23T05:32:02.388Z,49.80
2018-05-23T05:33:04.872Z,52.40
2018-05-23T05:34:07.356Z,49.35
2018-05-23T05:35:10.013Z,54.50
2018-05-23T05:36:13.603Z,50.88
2018-05-23T05:37:16.883Z,48.28
2018-05-23T05:38:19.367Z,50.50
2018-05-23T05:39:22.627Z,49.70
2018-05-23T05:40:25.403Z,52.30
2018-05-23T05:41:28.132Z,46.88
2018-05-23T05:42:30.642Z,53.28
2018-05-23T05:43:33.112Z,53.97
2018-05-23T05:44:35.600Z,54.95
2018-05-23T05:45:39.166Z,50.78
2018-05-23T05:46:42.453Z,52.97
2018-05-23T05:47:44.923Z,52.88
2018-05-23T05:48:48.899Z,52.17
2018-05-23T05:49:51.392Z,54.20
2018-05-23T05:50:54.809Z,51.92
2018-05-23T05:51:57.299Z,54.90
2018-05-23T05:52:59.780Z,52.85
2018-05-23T05:54:02.251Z,51.92
2018-05-23T05:55:04.735Z,51.17
2018-05-23T05:56:08.262Z,46.78
2018-05-23T05:57:10.759Z,46.58
2018-05-23T05:58:13.228Z,45.20
2018-05-23T05:59:15.700Z,45.55
2018-05-23T06:00:18.423Z,47.62
2018-05-23T06:01:21.195Z,48.75
2018-05-23T06:02:23.696Z,50.70
2018-05-23T06:03:26.168Z,52.80
2018-05-23T06:04:28.644Z,49.92
2018-05-23T06:05:32.281Z,47.38
2018-05-23T06:06:34.787Z,47.47
2018-05-23T06:07:37.268Z,47.95
2018-05-23T06:08:39.907Z,47.40
2018-05-23T06:09:42.398Z,44.70
2018-05-23T06:10:45.110Z,46.53
2018-05-23T06:11:47.605Z,45.10
2018-05-23T06:12:50.081Z,47.25
2018-05-23T06:13:52.556Z,53.08
2018-05-23T06:14:55.032Z,44.38
2018-05-23T06:15:58.663Z,47.10
2018-05-23T06:17:01.172Z,43.47
2018-05-23T06:18:03.648Z,44.10
2018-05-23T06:19:06.120Z,47.45
2018-05-23T06:20:08.931Z,48.00
2018-05-23T06:21:11.701Z,47.13
2018-05-23T06:22:14.242Z,49.25
2018-05-23T06:23:16.691Z,51.92
2018-05-23T06:24:19.175Z,51.13
2018-05-23T06:25:22.686Z,51.45
2018-05-23T06:26:25.661Z,47.45
2018-05-23T06:27:28.168Z,46.40
2018-05-23T06:28:30.643Z,50.53
2018-05-23T06:29:33.824Z,42.45
2018-05-23T06:30:36.645Z,47.55
2018-05-23T06:31:39.171Z,43.97
2018-05-23T06:32:41.640Z,44.70
2018-05-23T06:33:44.875Z,48.22
2018-05-23T06:34:47.352Z,46.60
2018-05-23T06:35:50.092Z,45.25
2018-05-23T06:36:52.604Z,45.80
2018-05-23T06:37:55.180Z,48.15
2018-05-23T06:38:57.560Z,46.55
2018-05-23T06:40:00.795Z,47.40
2018-05-23T06:41:03.583Z,45.17
2018-05-23T06:42:06.080Z,47.92
2018-05-23T06:43:09.312Z,47.03
2018-05-23T06:44:11.780Z,46.60
2018-05-23T06:45:14.527Z,50.40
2018-05-23T06:46:17.912Z,42.03
2018-05-23T06:47:20.447Z,46.50
2018-05-23T06:48:23.683Z,46.42
2018-05-23T06:49:26.160Z,45.47
2018-05-23T06:50:28.895Z,48.90
2018-05-23T06:51:31.592Z,49.72
2018-05-23T06:52:35.604Z,47.22
2018-05-23T06:53:38.072Z,50.05
2018-05-23T06:54:40.548Z,46.67
2018-05-23T06:55:43.728Z,48.60
2018-05-23T06:56:46.152Z,49.17
2018-05-23T06:57:48.635Z,50.45
2018-05-23T06:58:51.104Z,48.60
2018-05-23T06:59:53.586Z,47.47
2018-05-23T07:00:56.401Z,46.08
2018-05-23T07:01:59.703Z,44.92
2018-05-23T07:03:02.199Z,50.92
2018-05-23T07:04:04.668Z,47.25
2018-05-23T07:05:07.178Z,48.30
2018-05-23T07:06:09.951Z,49.97
2018-05-23T07:07:12.455Z,46.78
2018-05-23T07:08:14.937Z,47.15
2018-05-23T07:09:17.412Z,48.20
2018-05-23T07:10:20.936Z,46.83
2018-05-23T07:11:23.604Z,47.15
2018-05-23T07:12:26.103Z,46.88
2018-05-23T07:13:28.640Z,48.92
2018-05-23T07:14:31.115Z,45.65
2018-05-23T07:15:33.773Z,45.67
2018-05-23T07:16:36.267Z,44.60
2018-05-23T07:17:38.737Z,48.83
2018-05-23T07:18:41.236Z,46.83
2018-05-23T07:19:44.476Z,46.60
2018-05-23T07:20:47.727Z,47.50
2018-05-23T07:21:50.236Z,49.22
2018-05-23T07:22:52.708Z,44.10
2018-05-23T07:23:55.200Z,48.08
2018-05-23T07:24:58.435Z,45.80
2018-05-23T07:26:01.718Z,46.37
2018-05-23T07:27:04.212Z,43.70
2018-05-23T07:28:07.452Z,40.55
2018-05-23T07:29:09.940Z,42.83
2018-05-23T07:30:12.582Z,41.30
2018-05-23T07:31:15.444Z,47.05
2018-05-23T07:32:17.956Z,42.13
2018-05-23T07:33:20.428Z,42.75
2018-05-23T07:34:23.691Z,46.72
2018-05-23T07:35:26.424Z,43.40
2018-05-23T07:36:29.003Z,45.28
2018-05-23T07:37:31.503Z,41.65
2018-05-23T07:38:33.972Z,45.67
2018-05-23T07:39:36.461Z,45.72
2018-05-23T07:40:39.973Z,44.90
2018-05-23T07:41:43.794Z,41.58
2018-05-23T07:42:46.263Z,39.90
2018-05-23T07:43:48.739Z,41.45
2018-05-23T07:44:51.232Z,41.65
2018-05-23T07:45:54.560Z,41.95
2018-05-23T07:46:57.855Z,43.80
2018-05-23T07:48:00.326Z,51.72
2018-05-23T07:49:02.796Z,41.25
2018-05-23T07:50:05.279Z,44.25
2018-05-23T07:51:07.922Z,45.65
2018-05-23T07:52:10.400Z,33.35
2018-05-23T07:53:12.876Z,33.05
2018-05-23T07:54:15.353Z,31.73
2018-05-23T07:55:18.908Z,38.00
2018-05-23T07:56:21.696Z,33.08
2018-05-23T07:57:24.948Z,32.65
2018-05-23T07:58:27.420Z,35.60
2018-05-23T07:59:29.887Z,36.67
2018-05-23T08:00:32.677Z,37.38
2018-05-23T08:01:35.936Z,38.50
2018-05-23T08:02:38.403Z,35.15
2018-05-23T08:03:40.937Z,34.88
2018-05-23T08:04:43.359Z,39.33
2018-05-23T08:05:46.184Z,35.60
2018-05-23T08:06:48.700Z,33.42
2018-05-23T08:07:51.169Z,33.85
2018-05-23T08:08:53.637Z,36.72
2018-05-23T08:09:56.872Z,33.30
2018-05-23T08:10:59.628Z,37.47
2018-05-23T08:12:02.128Z,36.78
2018-05-23T08:13:04.596Z,31.90
2018-05-23T08:14:07.068Z,34.13
2018-05-23T08:15:10.714Z,33.33
2018-05-23T08:16:13.486Z,35.10
2018-05-23T08:17:15.988Z,32.92
2018-05-23T08:18:18.464Z,33.55
2018-05-23T08:19:20.936Z,31.62
2018-05-23T08:20:24.469Z,33.30
2018-05-23T08:21:27.360Z,33.17
2018-05-23T08:22:29.831Z,31.65
2018-05-23T08:23:32.304Z,30.70
2018-05-23T08:24:34.772Z,31.67
2018-05-23T08:25:37.609Z,30.90
2018-05-23T08:26:40.140Z,32.90
2018-05-23T08:27:43.376Z,33.95
2018-05-23T08:28:45.852Z,33.25
2018-05-23T08:29:48.374Z,31.87
2018-05-23T08:30:50.997Z,29.02
2018-05-23T08:31:54.271Z,33.17
2018-05-23T08:32:56.744Z,26.95
2018-05-23T08:33:59.224Z,27.10
2018-05-23T08:35:02.551Z,24.65
2018-05-23T08:36:05.225Z,26.98
2018-05-23T08:37:07.735Z,28.80
2018-05-23T08:38:10.207Z,28.00
2018-05-23T08:39:14.187Z,25.05
2018-05-23T08:40:16.961Z,26.92
2018-05-23T08:41:19.740Z,25.17
2018-05-23T08:42:23.020Z,33.42
2018-05-23T08:43:25.491Z,25.75
2018-05-23T08:44:27.969Z,23.00
2018-05-23T08:45:32.313Z,23.35
2018-05-23T08:46:34.815Z,21.50
2018-05-23T08:47:37.308Z,21.45
2018-05-23T08:48:40.544Z,22.50
2018-05-23T08:49:43.012Z,21.00
2018-05-23T08:50:45.863Z,17.87
2018-05-23T08:51:48.372Z,20.85
2018-05-23T08:52:50.864Z,21.80
2018-05-23T08:53:54.100Z,21.98
2018-05-23T08:54:56.575Z,25.35
2018-05-23T08:55:59.821Z,19.75
2018-05-23T08:57:02.327Z,18.37
2018-05-23T08:58:04.816Z,18.70
2018-05-23T08:59:08.056Z,18.83
2018-05-23T09:00:10.742Z,19.08
2018-05-23T09:01:13.587Z,15.35
2018-05-23T09:02:16.076Z,16.65
2018-05-23T09:03:18.572Z,16.40
2018-05-23T09:04:21.811Z,17.77
2018-05-23T09:05:25.307Z,16.25
2018-05-23T09:06:27.856Z,16.60
2018-05-23T09:07:30.325Z,15.60
2018-05-23T09:08:32.816Z,17.40
2018-05-23T09:09:35.292Z,18.90
2018-05-23T09:10:38.009Z,19.20
2018-05-23T09:11:40.512Z,20.33
2018-05-23T09:12:42.983Z,17.90
2018-05-23T09:13:45.476Z,16.35
2018-05-23T09:14:48.711Z,16.27
2018-05-23T09:15:51.455Z,16.75
2018-05-23T09:16:53.980Z,17.20
2018-05-23T09:17:56.444Z,18.42
2018-05-23T09:19:00.456Z,17.02
2018-05-23T09:20:03.692Z,20.02
2018-05-23T09:21:06.900Z,18.73
2018-05-23T09:22:10.883Z,17.67
2018-05-23T09:23:13.351Z,15.35
2018-05-23T09:24:15.845Z,20.60
2018-05-23T09:25:19.342Z,15.95
2018-05-23T09:26:22.768Z,17.42
2018-05-23T09:27:25.271Z,15.07
2018-05-23T09:28:27.743Z,15.57
2018-05-23T09:29:31.744Z,17.83
2018-05-23T09:30:35.272Z,17.27
2018-05-23T09:31:37.784Z,17.87
2018-05-23T09:32:40.256Z,17.40
2018-05-23T09:33:42.724Z,18.30
2018-05-23T09:34:46.724Z,14.15
2018-05-23T09:35:49.436Z,14.90
2018-05-23T09:36:51.927Z,13.90
2018-05-23T09:37:54.395Z,13.50
2018-05-23T09:38:56.860Z,8.93
2018-05-23T09:39:59.339Z,9.57
2018-05-23T09:41:02.103Z,7.00
2018-05-23T09:42:04.584Z,8.10
2018-05-23T09:43:07.048Z,7.68
2018-05-23T09:44:09.517Z,6.18
2018-05-23T09:45:14.067Z,8.68
2018-05-23T09:46:17.501Z,11.38
2018-05-23T09:47:20.755Z,6.40
2018-05-23T09:48:23.220Z,6.25
2018-05-23T09:49:25.684Z,7.10
2018-05-23T09:50:28.542Z,7.93
2018-05-23T09:51:31.316Z,8.43
2018-05-23T09:52:33.807Z,9.85
2018-05-23T09:53:36.284Z,11.35
2018-05-23T09:54:38.748Z,7.68
2018-05-23T09:55:41.584Z,5.57
2018-05-23T09:56:44.087Z,9.68
2018-05-23T09:57:46.551Z,5.72
2018-05-23T09:58:49.020Z,5.65
2018-05-23T09:59:51.480Z,5.18
2018-05-23T10:00:54.213Z,7.53
2018-05-23T10:01:56.703Z,5.70
2018-05-23T10:02:59.171Z,5.60
2018-05-23T10:04:01.636Z,5.65
2018-05-23T10:05:04.104Z,6.43
2018-05-23T10:06:07.574Z,5.93
2018-05-23T10:07:10.071Z,9.10
2018-05-23T10:08:12.535Z,4.75
2018-05-23T10:09:15.782Z,4.55
2018-05-23T10:10:18.640Z,4.70
2018-05-23T10:11:22.435Z,4.32
2018-05-23T10:12:24.924Z,5.68
2018-05-23T10:13:27.400Z,5.05
2018-05-23T10:14:29.868Z,4.62
2018-05-23T10:15:32.701Z,4.50
2018-05-23T10:16:35.220Z,4.47
2018-05-23T10:17:39.202Z,4.60
2018-05-23T10:18:41.664Z,6.90
2018-05-23T10:19:44.132Z,7.28
2018-05-23T10:20:46.913Z,4.95
2018-05-23T10:21:50.180Z,6.00
2018-05-23T10:22:52.648Z,5.80
2018-05-23T10:23:55.112Z,5.25
2018-05-23T10:24:57.584Z,6.12
2018-05-23T10:26:00.416Z,4.50
2018-05-23T10:27:02.939Z,4.20
2018-05-23T10:28:06.911Z,5.07
2018-05-23T10:29:09.380Z,5.80
2018-05-23T10:30:12.772Z,4.72
2018-05-23T10:31:15.549Z,4.68
2018-05-23T10:32:18.820Z,6.55
2018-05-23T10:33:21.365Z,4.50
2018-05-23T10:34:23.760Z,4.70
2018-05-23T10:35:26.535Z,6.37
2018-05-23T10:36:29.056Z,5.30
2018-05-23T10:37:31.536Z,6.62
2018-05-23T10:38:34.007Z,4.50
2018-05-23T10:39:36.468Z,4.43
2018-05-23T10:40:39.120Z,7.90
2018-05-23T10:41:41.611Z,8.10
2018-05-23T10:42:44.109Z,8.80
2018-05-23T10:43:47.344Z,4.57
2018-05-23T10:44:49.813Z,8.52
2018-05-23T10:45:52.561Z,3.62
2018-05-23T10:46:55.068Z,8.68
2018-05-23T10:47:57.551Z,5.30
2018-05-23T10:49:00.784Z,5.57
2018-05-23T10:50:03.248Z,5.35
2018-05-23T10:51:06.008Z,4.70
2018-05-23T10:52:08.532Z,5.82
2018-05-23T10:53:11.000Z,5.05
2018-05-23T10:54:14.231Z,5.00
2018-05-23T10:55:16.932Z,6.22
2018-05-23T10:56:20.889Z,4.80
2018-05-23T10:57:23.387Z,6.68
2018-05-23T10:58:25.872Z,8.75
2018-05-23T10:59:29.112Z,3.75
2018-05-23T11:00:31.769Z,9.20
2018-05-23T11:01:34.263Z,4.37
2018-05-23T11:02:36.735Z,3.90
2018-05-23T11:03:39.217Z,6.95
2018-05-23T11:04:41.679Z,4.00
2018-05-23T11:05:45.235Z,5.30
2018-05-23T11:06:48.519Z,4.90
2018-05-23T11:07:50.983Z,6.80
2018-05-23T11:08:53.512Z,8.32
2018-05-23T11:09:55.947Z,10.50
2018-05-23T11:10:58.664Z,17.65
2018-05-23T11:12:01.167Z,9.85
2018-05-23T11:13:03.635Z,10.45
2018-05-23T11:14:06.115Z,8.27
2018-05-23T11:15:09.660Z,6.87
2018-05-23T11:16:12.420Z,5.10
2018-05-23T11:17:14.921Z,11.05
2018-05-23T11:18:17.388Z,8.88
2018-05-23T11:19:19.872Z,7.40
2018-05-23T11:20:24.017Z,5.25
2018-05-23T11:21:26.709Z,5.57
2018-05-23T11:22:29.185Z,12.73
2018-05-23T11:23:31.652Z,8.05
2018-05-23T11:24:34.139Z,6.20
2018-05-23T11:25:37.669Z,7.07
2018-05-23T11:26:40.172Z,9.48
2018-05-23T11:27:42.644Z,5.78
2018-05-23T11:28:45.112Z,4.43
2018-05-23T11:29:47.664Z,4.87
2018-05-23T11:30:51.220Z,6.53
2018-05-23T11:31:54.262Z,6.15
2018-05-23T11:32:57.497Z,4.75
2018-05-23T11:33:59.961Z,5.72
2018-05-23T11:35:02.597Z,7.47
2018-05-23T11:36:05.692Z,7.28
2018-05-23T11:37:08.183Z,6.53
2018-05-23T11:38:10.652Z,5.85
2018-05-23T11:39:13.120Z,6.05
2018-05-23T11:40:15.854Z,9.65
2018-05-23T11:41:18.528Z,4.78
2018-05-23T11:42:21.029Z,4.55
2018-05-23T11:43:23.488Z,7.85
2018-05-23T11:44:25.951Z,4.50
2018-05-23T11:45:28.687Z,5.12
2018-05-23T11:46:31.508Z,6.95
2018-05-23T11:47:34.764Z,4.22
2018-05-23T11:48:37.231Z,4.05
2018-05-23T11:49:39.699Z,5.97
2018-05-23T11:50:42.544Z,7.87
2018-05-23T11:51:45.040Z,7.37
2018-05-23T11:52:47.516Z,7.40
2018-05-23T11:53:49.995Z,8.75
2018-05-23T11:54:52.460Z,7.25
2018-05-23T11:55:55.992Z,4.35
2018-05-23T11:56:58.491Z,4.15
2018-05-23T11:58:00.956Z,4.25
2018-05-23T11:59:03.424Z,3.65
2018-05-23T12:00:05.892Z,3.40
2018-05-23T12:01:08.651Z,5.78
2018-05-23T12:02:11.141Z,4.95
2018-05-23T12:03:14.375Z,6.97
2018-05-23T12:04:16.843Z,4.75
2018-05-23T12:05:19.603Z,6.57
2018-05-23T12:06:22.220Z,4.20
2018-05-23T12:07:24.694Z,6.45
2018-05-23T12:08:27.927Z,6.55
2018-05-23T12:09:30.400Z,7.70
2018-05-23T12:10:33.251Z,3.95
2018-05-23T12:11:36.992Z,5.35
2018-05-23T12:12:39.464Z,6.47
2018-05-23T12:13:43.447Z,4.65
2018-05-23T12:14:45.908Z,6.35
2018-05-23T12:15:48.751Z,6.95
2018-05-23T12:16:51.252Z,6.78
2018-05-23T12:17:53.719Z,7.37
2018-05-23T12:18:56.183Z,7.53
2018-05-23T12:19:58.651Z,3.90
2018-05-23T12:21:01.379Z,4.90
2018-05-23T12:22:03.888Z,6.45
2018-05-23T12:23:06.361Z,4.47
2018-05-23T12:24:08.828Z,5.00
2018-05-23T12:25:12.302Z,5.28
2018-05-23T12:26:15.744Z,4.50
2018-05-23T12:27:18.249Z,6.07
2018-05-23T12:28:20.712Z,6.07
2018-05-23T12:29:23.180Z,5.85
2018-05-23T12:30:25.956Z,4.03
2018-05-23T12:31:30.225Z,5.70
2018-05-23T12:32:32.740Z,5.97
2018-05-23T12:33:35.973Z,6.62
2018-05-23T12:34:38.439Z,6.07
2018-05-23T12:35:41.082Z,4.60
2018-05-23T12:36:43.568Z,6.72
2018-05-23T12:37:46.047Z,4.90
2018-05-23T12:38:48.511Z,5.03
2018-05-23T12:39:50.995Z,3.95
2018-05-23T12:40:53.922Z,6.35
2018-05-23T12:41:57.127Z,2.87
2018-05-23T12:42:59.611Z,5.12
2018-05-23T12:44:02.085Z,4.37
2018-05-23T12:45:04.548Z,4.07
2018-05-23T12:46:07.313Z,7.30
2018-05-23T12:47:11.307Z,3.67
2018-05-23T12:48:13.792Z,4.93
2018-05-23T12:49:16.264Z,7.28
2018-05-23T12:50:19.738Z,4.87
2018-05-23T12:51:22.672Z,5.62
2018-05-23T12:52:25.164Z,4.95
2018-05-23T12:53:27.643Z,6.22
2018-05-23T12:54:30.115Z,5.82
2018-05-23T12:55:33.553Z,8.88
2018-05-23T12:56:36.047Z,8.73
2018-05-23T12:57:38.515Z,4.55
2018-05-23T12:58:41.011Z,6.45
2018-05-23T12:59:44.244Z,6.43
2018-05-23T13:00:47.041Z,4.25
2018-05-23T13:01:50.295Z,4.28
2018-05-23T13:02:52.764Z,3.55
2018-05-23T13:03:55.247Z,6.32
2018-05-23T13:04:57.708Z,4.05
2018-05-23T13:06:00.491Z,4.85
2018-05-23T13:07:04.482Z,5.07
2018-05-23T13:08:06.948Z,3.58
2018-05-23T13:09:09.436Z,5.00
2018-05-23T13:10:13.891Z,5.72
2018-05-23T13:11:16.762Z,4.05
2018-05-23T13:12:19.289Z,3.62
2018-05-23T13:13:21.748Z,4.45
2018-05-23T13:14:25.020Z,6.03
2018-05-23T13:15:27.688Z,6.22
2018-05-23T13:16:31.336Z,4.80
2018-05-23T13:17:33.832Z,4.75
2018-05-23T13:18:36.303Z,4.60
2018-05-23T13:19:38.786Z,6.87
2018-05-23T13:20:42.227Z,4.68
2018-05-23T13:21:44.716Z,6.40
2018-05-23T13:22:47.183Z,5.47
2018-05-23T13:23:49.652Z,4.97
2018-05-23T13:24:52.143Z,6.35
2018-05-23T13:25:55.776Z,3.17
2018-05-23T13:26:59.084Z,3.55
2018-05-23T13:28:01.551Z,3.33
2018-05-23T13:29:04.020Z,5.40
2018-05-23T13:30:06.504Z,4.35
2018-05-23T13:31:10.034Z,4.40
2018-05-23T13:32:12.532Z,6.60
2018-05-23T13:33:14.995Z,4.55
2018-05-23T13:34:17.464Z,3.72
2018-05-23T13:35:20.211Z,4.35
2018-05-23T13:36:23.072Z,6.53
2018-05-23T13:37:25.584Z,4.53
2018-05-23T13:38:28.056Z,7.37